createdAt,value
2022-07-26T00:02:04.673Z,24.56
2022-07-26T00:04:32.761Z,24.55
2022-07-26T00:07:00.593Z,24.55
2022-07-26T00:09:28.431Z,24.54
2022-07-26T00:11:56.424Z,24.53
2022-07-26T00:14:24.509Z,24.50
2022-07-26T00:16:52.385Z,24.47
2022-07-26T00:19:20.242Z,24.38
2022-07-26T00:21:48.738Z,24.33
2022-07-26T00:24:16.578Z,24.23
2022-07-26T00:26:44.347Z,24.17
2022-07-26T00:29:12.236Z,24.18
2022-07-26T00:31:40.245Z,24.20
2022-07-26T00:34:08.171Z,24.17
2022-07-26T00:36:36.157Z,24.08
2022-07-26T00:39:09.281Z,24.06
2022-07-26T00:41:37.609Z,24.04
2022-07-26T00:44:05.986Z,24.00
2022-07-26T00:46:33.778Z,23.97
2022-07-26T00:49:01.840Z,23.94
2022-07-26T00:51:30.027Z,23.84
2022-07-26T00:53:57.933Z,23.70
2022-07-26T00:56:26.828Z,23.65
2022-07-26T00:58:54.536Z,23.65
2022-07-26T01:01:22.274Z,23.63
2022-07-26T01:03:54.516Z,23.60
2022-07-26T01:06:27.330Z,23.54
2022-07-26T01:08:55.772Z,23.48
2022-07-26T01:11:23.654Z,23.46
2022-07-26T01:13:51.950Z,23.34
2022-07-26T01:16:20.098Z,23.27
2022-07-26T01:18:47.830Z,23.26
2022-07-26T01:21:15.941Z,23.24
2022-07-26T01:23:44.504Z,23.21
2022-07-26T01:26:12.653Z,23.18
2022-07-26T01:28:42.776Z,23.15
2022-07-26T01:31:10.730Z,23.08
2022-07-26T01:33:38.671Z,22.61
2022-07-26T01:36:06.534Z,22.58
2022-07-26T01:38:34.878Z,22.78
2022-07-26T01:41:02.706Z,22.98
2022-07-26T01:43:30.607Z,23.16
2022-07-26T01:45:58.416Z,23.30
2022-07-26T01:48:26.464Z,23.39
2022-07-26T01:50:54.422Z,23.44
2022-07-26T01:53:22.547Z,23.47
2022-07-26T01:55:50.587Z,23.50
2022-07-26T01:58:18.819Z,23.52
2022-07-26T02:00:46.768Z,23.48
2022-07-26T02:03:14.968Z,23.39
2022-07-26T02:05:42.730Z,23.24
2022-07-26T02:08:11.729Z,23.19
2022-07-26T02:10:59.194Z,23.21
2022-07-26T02:13:35.777Z,23.17
2022-07-26T02:16:05.755Z,23.17
2022-07-26T02:18:34.432Z,23.15
2022-07-26T02:21:02.610Z,23.06
2022-07-26T02:23:30.708Z,22.99
2022-07-26T02:25:58.592Z,22.98
2022-07-26T02:28:28.190Z,22.99
2022-07-26T02:30:55.998Z,22.99
2022-07-26T02:33:24.896Z,22.92
2022-07-26T02:35:52.599Z,22.87
2022-07-26T02:38:20.262Z,22.78
2022-07-26T02:40:50.618Z,22.76
2022-07-26T02:43:18.529Z,22.64
2022-07-26T02:46:01.881Z,22.54
2022-07-26T02:48:31.557Z,22.39
2022-07-26T02:51:00.087Z,22.38
2022-07-26T02:53:28.424Z,22.37
2022-07-26T02:55:56.088Z,22.31
2022-07-26T02:58:25.256Z,22.20
2022-07-26T03:00:53.151Z,22.14
2022-07-26T03:03:20.924Z,22.12
2022-07-26T03:05:48.960Z,22.00
2022-07-26T03:08:16.986Z,21.95
2022-07-26T03:10:45.029Z,21.93
2022-07-26T03:13:13.033Z,21.95
2022-07-26T03:15:41.085Z,21.88
2022-07-26T03:18:08.869Z,21.89
2022-07-26T03:20:36.829Z,21.88
2022-07-26T03:23:04.646Z,21.82
2022-07-26T03:25:32.441Z,21.85
2022-07-26T03:28:05.738Z,21.86
2022-07-26T03:30:33.702Z,21.88
2022-07-26T03:33:01.665Z,21.93
2022-07-26T03:35:29.390Z,21.87
2022-07-26T03:37:57.063Z,21.93
2022-07-26T03:40:25.008Z,21.94
2022-07-26T03:42:52.822Z,21.90
2022-07-26T03:45:20.755Z,21.87
2022-07-26T03:47:48.668Z,21.92
2022-07-26T03:50:16.567Z,21.88
2022-07-26T03:52:44.405Z,21.81
2022-07-26T03:55:30.742Z,21.77
2022-07-26T03:57:59.075Z,21.66
2022-07-26T04:00:26.952Z,21.64
2022-07-26T04:02:54.783Z,21.64
2022-07-26T04:05:23.718Z,21.57
2022-07-26T04:07:53.129Z,21.60
2022-07-26T04:10:22.643Z,21.58
2022-07-26T04:12:50.607Z,21.51
2022-07-26T04:15:20.129Z,21.46
2022-07-26T04:17:48.793Z,21.38
2022-07-26T04:20:17.003Z,21.36
2022-07-26T04:22:45.997Z,21.25
2022-07-26T04:25:13.856Z,21.20
2022-07-26T04:27:41.699Z,21.17
2022-07-26T04:30:14.706Z,21.11
2022-07-26T04:32:45.848Z,21.13
2022-07-26T04:35:15.603Z,21.06
2022-07-26T04:37:45.394Z,21.03
2022-07-26T04:40:21.045Z,21.04
2022-07-26T04:42:51.024Z,20.99
2022-07-26T04:45:19.484Z,21.05
2022-07-26T04:47:50.365Z,21.04
2022-07-26T04:50:19.846Z,21.02
2022-07-26T04:52:49.262Z,20.94
2022-07-26T04:55:17.987Z,20.95
2022-07-26T04:57:47.687Z,20.97
2022-07-26T05:00:22.990Z,20.93
2022-07-26T05:02:54.584Z,20.90
2022-07-26T05:05:23.104Z,20.84
2022-07-26T05:07:56.515Z,20.84
2022-07-26T05:10:35.407Z,20.86
2022-07-26T05:13:05.410Z,20.82
2022-07-26T05:15:35.047Z,20.81
2022-07-26T05:18:10.687Z,20.82
2022-07-26T05:20:41.277Z,20.88
2022-07-26T05:23:09.660Z,20.83
2022-07-26T05:25:38.816Z,20.83
2022-07-26T05:28:06.572Z,20.80
2022-07-26T05:30:34.300Z,20.70
2022-07-26T05:33:02.188Z,20.78
2022-07-26T05:35:29.955Z,20.76
2022-07-26T05:37:57.713Z,20.76
2022-07-26T05:40:25.522Z,20.79
2022-07-26T05:42:53.280Z,20.85
2022-07-26T05:45:20.990Z,20.82
2022-07-26T05:47:52.641Z,20.86
2022-07-26T05:50:20.364Z,20.91
2022-07-26T05:52:48.239Z,20.96
2022-07-26T05:55:15.996Z,20.97
2022-07-26T05:57:47.488Z,21.01
2022-07-26T06:00:18.126Z,20.97
2022-07-26T06:02:45.945Z,20.98
2022-07-26T06:05:15.974Z,21.03
2022-07-26T06:07:44.013Z,21.13
2022-07-26T06:10:12.215Z,21.16
2022-07-26T06:12:40.449Z,21.27
2022-07-26T06:15:15.048Z,21.34
2022-07-26T06:17:43.722Z,21.32
2022-07-26T06:20:11.888Z,21.39
2022-07-26T06:22:39.866Z,21.45
2022-07-26T06:25:08.257Z,21.39
2022-07-26T06:27:36.266Z,21.36
2022-07-26T06:30:05.211Z,21.36
2022-07-26T06:32:33.021Z,21.37
2022-07-26T06:35:00.979Z,21.32
2022-07-26T06:37:28.790Z,21.14
2022-07-26T06:39:56.497Z,21.18
2022-07-26T06:42:25.152Z,21.22
2022-07-26T06:44:52.846Z,21.22
2022-07-26T06:47:20.493Z,21.39
2022-07-26T06:49:48.282Z,21.43
2022-07-26T06:52:16.102Z,21.45
2022-07-26T06:54:43.999Z,21.46
2022-07-26T06:57:11.990Z,21.46
2022-07-26T06:59:39.703Z,21.58
2022-07-26T07:02:07.480Z,21.67
2022-07-26T07:04:35.874Z,21.64
2022-07-26T07:07:06.057Z,21.64
2022-07-26T07:09:35.997Z,21.62
2022-07-26T07:12:08.578Z,21.62
2022-07-26T07:14:39.391Z,21.73
2022-07-26T07:17:12.219Z,21.83
2022-07-26T07:19:42.018Z,21.94
2022-07-26T07:22:12.300Z,22.15
2022-07-26T07:24:41.791Z,22.19
2022-07-26T07:27:10.802Z,22.10
2022-07-26T07:29:41.192Z,22.26
2022-07-26T07:32:18.417Z,22.55
2022-07-26T07:34:48.834Z,22.65
2022-07-26T07:37:18.179Z,22.76
2022-07-26T07:39:50.263Z,22.64
2022-07-26T07:42:19.629Z,22.76
2022-07-26T07:44:48.125Z,22.79
2022-07-26T07:47:15.928Z,22.80
2022-07-26T07:49:43.760Z,23.06
2022-07-26T07:52:11.483Z,23.00
2022-07-26T07:54:40.014Z,23.10
2022-07-26T07:57:10.604Z,23.17
2022-07-26T07:59:39.402Z,23.17
2022-07-26T08:02:07.785Z,23.14
2022-07-26T08:04:35.959Z,23.22
2022-07-26T08:07:03.793Z,23.26
2022-07-26T08:09:33.901Z,23.45
2022-07-26T08:12:02.900Z,23.58
2022-07-26T08:14:30.904Z,23.53
2022-07-26T08:16:59.043Z,23.54
2022-07-26T08:19:29.285Z,23.49
2022-07-26T08:22:10.971Z,23.35
2022-07-26T08:24:39.725Z,23.51
2022-07-26T08:27:07.718Z,23.52
2022-07-26T08:29:35.579Z,23.71
2022-07-26T08:32:04.183Z,23.65
2022-07-26T08:34:32.519Z,23.64
2022-07-26T08:37:16.418Z,23.49
2022-07-26T08:39:46.693Z,23.52
2022-07-26T08:42:16.424Z,23.64
2022-07-26T08:44:48.263Z,23.74
2022-07-26T08:47:35.455Z,23.78
2022-07-26T08:50:07.413Z,23.73
2022-07-26T08:52:35.210Z,23.71
2022-07-26T08:55:03.079Z,23.73
2022-07-26T08:57:30.768Z,23.98
2022-07-26T09:00:20.702Z,24.25
2022-07-26T09:02:49.170Z,24.53
2022-07-26T09:05:19.783Z,24.65
2022-07-26T09:07:47.517Z,24.57
2022-07-26T09:10:15.822Z,24.44
2022-07-26T09:12:44.676Z,24.38
2022-07-26T09:15:21.651Z,24.50
2022-07-26T09:17:53.101Z,24.40
2022-07-26T09:20:29.851Z,24.34
2022-07-26T09:23:05.564Z,24.22
2022-07-26T09:25:45.009Z,24.23
2022-07-26T09:28:28.809Z,24.36
2022-07-26T09:31:03.250Z,24.39
2022-07-26T09:33:45.665Z,24.58
2022-07-26T09:36:13.829Z,24.82
2022-07-26T09:38:45.064Z,24.98
2022-07-26T09:41:30.387Z,25.11
2022-07-26T09:44:04.264Z,25.06
2022-07-26T09:46:35.589Z,25.02
2022-07-26T09:49:20.678Z,25.02
2022-07-26T09:51:51.103Z,24.98
2022-07-26T09:54:39.463Z,24.96
2022-07-26T09:57:07.441Z,24.94
2022-07-26T09:59:35.214Z,25.01
2022-07-26T10:02:03.361Z,25.10
2022-07-26T10:04:31.249Z,25.37
2022-07-26T10:06:59.035Z,25.48
2022-07-26T10:09:37.445Z,25.47
2022-07-26T10:12:08.884Z,25.48
2022-07-26T10:14:37.364Z,25.37
2022-07-26T10:17:30.916Z,25.27
2022-07-26T10:20:17.628Z,25.41
2022-07-26T10:22:52.184Z,25.42
2022-07-26T10:25:20.182Z,25.50
2022-07-26T10:27:57.845Z,25.55
2022-07-26T10:30:34.920Z,25.61
2022-07-26T10:33:10.263Z,25.70
2022-07-26T10:35:41.123Z,25.85
2022-07-26T10:38:29.537Z,25.90
2022-07-26T10:41:03.164Z,25.98
2022-07-26T10:43:40.630Z,25.96
2022-07-26T10:46:18.586Z,25.89
2022-07-26T10:48:55.573Z,25.85
2022-07-26T10:51:32.181Z,25.63
2022-07-26T10:54:04.690Z,25.75
2022-07-26T10:56:33.587Z,25.88
2022-07-26T10:59:03.337Z,26.09
2022-07-26T11:01:35.651Z,26.18
2022-07-26T11:04:04.008Z,26.02
2022-07-26T11:06:32.535Z,25.80
2022-07-26T11:09:10.703Z,25.57
2022-07-26T11:11:39.463Z,25.44
2022-07-26T11:14:16.896Z,25.40
2022-07-26T11:16:50.511Z,25.49
2022-07-26T11:19:20.988Z,25.52
2022-07-26T11:22:01.071Z,25.48
2022-07-26T11:24:29.504Z,25.45
2022-07-26T11:27:03.985Z,25.43
2022-07-26T11:29:38.985Z,25.28
2022-07-26T11:32:24.718Z,25.14
2022-07-26T11:35:03.651Z,25.15
2022-07-26T11:37:31.719Z,25.30
2022-07-26T11:39:59.508Z,25.51
2022-07-26T11:42:27.380Z,25.71
2022-07-26T11:44:55.434Z,25.61
2022-07-26T11:47:25.353Z,25.52
2022-07-26T11:50:16.444Z,25.58
2022-07-26T11:52:43.220Z,25.87
2022-07-26T11:55:10.938Z,25.98
2022-07-26T11:57:38.630Z,26.07
2022-07-26T12:00:07.306Z,26.01
2022-07-26T12:02:35.065Z,26.08
2022-07-26T12:05:17.862Z,26.21
2022-07-26T12:07:57.981Z,26.33
2022-07-26T12:10:27.304Z,26.20
2022-07-26T12:13:12.880Z,26.13
2022-07-26T12:15:50.356Z,26.13
2022-07-26T12:18:36.820Z,25.99
2022-07-26T12:21:08.863Z,25.89
2022-07-26T12:23:43.899Z,25.67
2022-07-26T12:26:26.171Z,25.45
2022-07-26T12:28:55.826Z,25.42
2022-07-26T12:31:29.521Z,25.48
2022-07-26T12:33:58.596Z,25.53
2022-07-26T12:36:29.527Z,25.60
2022-07-26T12:39:01.399Z,25.71
2022-07-26T12:41:33.763Z,25.93
2022-07-26T12:44:01.537Z,26.31
2022-07-26T12:46:35.190Z,26.29
2022-07-26T12:49:05.107Z,26.37
2022-07-26T12:51:33.549Z,26.19
2022-07-26T12:54:01.342Z,26.11
2022-07-26T12:56:29.303Z,26.03
2022-07-26T12:59:01.363Z,26.05
2022-07-26T13:01:31.632Z,26.14
2022-07-26T13:04:00.094Z,26.29
2022-07-26T13:06:28.072Z,26.37
2022-07-26T13:08:56.757Z,26.26
2022-07-26T13:11:25.150Z,26.30
2022-07-26T13:13:53.203Z,26.37
2022-07-26T13:16:21.122Z,26.39
2022-07-26T13:18:49.066Z,26.34
2022-07-26T13:21:16.792Z,26.16
2022-07-26T13:23:44.468Z,26.34
2022-07-26T13:26:12.521Z,26.28
2022-07-26T13:28:40.747Z,26.08
2022-07-26T13:31:09.220Z,26.26
2022-07-26T13:33:39.336Z,26.44
2022-07-26T13:36:07.391Z,26.58
2022-07-26T13:38:35.505Z,26.76
2022-07-26T13:41:03.837Z,26.73
2022-07-26T13:43:31.896Z,26.46
2022-07-26T13:45:59.685Z,26.39
2022-07-26T13:48:28.141Z,26.32
2022-07-26T13:50:57.588Z,26.33
2022-07-26T13:53:25.798Z,26.32
2022-07-26T13:55:53.518Z,26.26
2022-07-26T13:58:21.681Z,26.43
2022-07-26T14:00:49.893Z,26.30
2022-07-26T14:03:17.916Z,26.20
2022-07-26T14:05:46.086Z,26.33
2022-07-26T14:08:14.094Z,26.48
2022-07-26T14:10:42.138Z,26.48
2022-07-26T14:13:09.982Z,26.52
2022-07-26T14:15:37.798Z,26.51
2022-07-26T14:18:05.660Z,26.47
2022-07-26T14:20:33.521Z,26.38
2022-07-26T14:23:01.255Z,26.50
2022-07-26T14:25:28.909Z,26.79
2022-07-26T14:27:56.600Z,27.04
2022-07-26T14:30:24.459Z,27.12
2022-07-26T14:32:52.212Z,27.00
2022-07-26T14:35:20.061Z,26.74
2022-07-26T14:37:47.694Z,26.47
2022-07-26T14:40:16.863Z,26.51
2022-07-26T14:42:46.154Z,26.44
2022-07-26T14:45:14.999Z,26.29
2022-07-26T14:47:43.159Z,26.44
2022-07-26T14:50:12.356Z,26.60
2022-07-26T14:52:42.615Z,26.76
2022-07-26T14:55:10.560Z,26.93
2022-07-26T14:57:40.154Z,26.91
2022-07-26T15:00:15.068Z,26.76
2022-07-26T15:02:45.221Z,26.63
2022-07-26T15:05:14.477Z,26.71
2022-07-26T15:07:43.489Z,26.73
2022-07-26T15:10:13.467Z,26.69
2022-07-26T15:12:42.080Z,26.56
2022-07-26T15:15:11.259Z,26.56
2022-07-26T15:17:39.287Z,26.55
2022-07-26T15:20:07.829Z,26.64
2022-07-26T15:22:35.815Z,26.70
2022-07-26T15:25:03.835Z,26.76
2022-07-26T15:27:31.626Z,26.83
2022-07-26T15:30:04.394Z,26.83
2022-07-26T15:32:34.813Z,26.80
2022-07-26T15:35:04.127Z,26.60
2022-07-26T15:37:31.894Z,26.45
2022-07-26T15:40:00.626Z,26.36
2022-07-26T15:42:32.296Z,26.18
2022-07-26T15:45:03.817Z,26.13
2022-07-26T15:48:01.015Z,26.11
2022-07-26T15:50:27.169Z,26.05
2022-07-26T15:52:54.818Z,25.98
2022-07-26T15:55:22.530Z,25.94
2022-07-26T15:57:50.354Z,25.88
2022-07-26T16:00:18.464Z,25.85
2022-07-26T16:02:46.322Z,25.80
2022-07-26T16:05:14.654Z,25.75
2022-07-26T16:07:43.808Z,25.73
2022-07-26T16:10:13.520Z,25.75
2022-07-26T16:12:42.234Z,25.72
2022-07-26T16:15:11.946Z,25.72
2022-07-26T16:17:40.130Z,25.68
2022-07-26T16:20:09.330Z,25.61
2022-07-26T16:22:41.364Z,25.60
2022-07-26T16:25:12.667Z,25.58
2022-07-26T16:27:42.937Z,25.56
2022-07-26T16:30:13.019Z,25.59
2022-07-26T16:32:41.576Z,25.64
2022-07-26T16:35:09.730Z,25.66
2022-07-26T16:37:37.543Z,25.63
2022-07-26T16:52:05.954Z,25.48
2022-07-26T16:54:34.093Z,25.06
2022-07-26T16:57:01.804Z,24.72
2022-07-26T16:59:29.581Z,24.56
2022-07-26T17:02:01.596Z,24.38
2022-07-26T17:04:30.830Z,24.20
2022-07-26T17:07:23.431Z,23.98
2022-07-26T17:09:46.159Z,23.55
2022-07-26T17:12:13.867Z,23.35
2022-07-26T17:14:41.812Z,23.11
2022-07-26T17:17:09.728Z,23.05
2022-07-26T17:19:37.477Z,22.97
2022-07-26T17:22:05.405Z,22.90
2022-07-26T17:24:33.389Z,22.81
2022-07-26T17:27:01.364Z,22.80
2022-07-26T17:29:29.254Z,22.53
2022-07-26T17:31:57.316Z,22.33
2022-07-26T17:34:25.053Z,21.60
2022-07-26T17:37:00.685Z,20.90
2022-07-26T17:39:50.765Z,20.48
2022-07-26T17:42:18.342Z,20.20
2022-07-26T17:44:46.182Z,20.10
2022-07-26T17:47:27.909Z,19.99
2022-07-26T17:50:34.789Z,19.89
2022-07-26T17:52:50.894Z,19.88
2022-07-26T17:55:19.690Z,19.86
2022-07-26T17:57:49.646Z,19.88
2022-07-26T18:00:20.083Z,20.01
2022-07-26T18:02:48.732Z,20.01
2022-07-26T18:05:18.436Z,20.03
2022-07-26T18:07:46.677Z,20.10
2022-07-26T18:10:14.639Z,20.09
2022-07-26T18:12:42.600Z,20.13
2022-07-26T18:15:11.004Z,20.19
2022-07-26T18:17:39.191Z,20.35
2022-07-26T18:20:08.227Z,20.42
2022-07-26T18:22:36.260Z,20.41
2022-07-26T18:25:05.585Z,20.39
2022-07-26T18:27:34.056Z,20.42
2022-07-26T18:30:02.826Z,20.35
2022-07-26T18:32:30.667Z,20.33
2022-07-26T18:34:58.573Z,20.39
2022-07-26T18:37:26.263Z,20.42
2022-07-26T18:39:57.784Z,20.41
2022-07-26T18:42:27.134Z,20.33
2022-07-26T18:44:54.818Z,20.22
2022-07-26T18:47:22.817Z,20.24
2022-07-26T18:49:50.828Z,20.33
2022-07-26T18:52:28.253Z,20.36
2022-07-26T18:55:02.755Z,20.41
2022-07-26T18:57:30.554Z,20.40
2022-07-26T18:59:58.540Z,20.32
2022-07-26T19:02:26.384Z,20.29
2022-07-26T19:04:54.224Z,20.27
2022-07-26T19:07:22.286Z,20.25
2022-07-26T19:09:52.665Z,20.16
2022-07-26T19:12:24.235Z,20.16
2022-07-26T19:14:52.032Z,20.12
2022-07-26T19:17:21.504Z,20.15
2022-07-26T19:19:49.371Z,20.04
2022-07-26T19:22:17.155Z,19.88
2022-07-26T19:24:44.871Z,19.83
2022-07-26T19:27:15.077Z,19.89
2022-07-26T19:29:42.985Z,19.92
2022-07-26T19:32:10.708Z,19.95
2022-07-26T19:34:38.483Z,19.90
2022-07-26T19:37:06.537Z,19.89
2022-07-26T19:39:34.244Z,19.88
2022-07-26T19:42:01.950Z,19.88
2022-07-26T19:44:29.723Z,19.84
2022-07-26T19:46:58.133Z,19.85
2022-07-26T19:49:26.302Z,19.89
2022-07-26T19:51:54.351Z,19.81
2022-07-26T19:54:22.401Z,19.77
2022-07-26T19:56:50.233Z,19.72
2022-07-26T19:59:22.982Z,19.75
2022-07-26T20:01:53.102Z,19.80
2022-07-26T20:04:21.766Z,19.71
2022-07-26T20:06:50.285Z,19.65
2022-07-26T20:09:18.005Z,19.56
2022-07-26T20:11:50.967Z,19.54
2022-07-26T20:14:20.047Z,19.53
2022-07-26T20:16:55.642Z,19.54
2022-07-26T20:19:24.805Z,19.53
2022-07-26T20:21:52.637Z,19.63
2022-07-26T20:24:21.690Z,19.62
2022-07-26T20:26:49.356Z,19.62
2022-07-26T20:29:18.725Z,19.61
2022-07-26T20:31:46.449Z,19.54
2022-07-26T20:34:14.205Z,19.54
2022-07-26T20:36:42.020Z,19.54
2022-07-26T20:39:10.104Z,19.55
2022-07-26T20:41:38.266Z,19.55
2022-07-26T20:44:07.054Z,19.53
2022-07-26T20:46:40.203Z,19.48
2022-07-26T20:49:08.932Z,19.39
2022-07-26T20:51:37.835Z,19.36
2022-07-26T20:54:06.539Z,19.35
2022-07-26T20:56:34.555Z,19.33
2022-07-26T20:59:03.071Z,19.30
2022-07-26T21:01:32.048Z,19.26
2022-07-26T21:04:00.033Z,19.23
2022-07-26T21:06:29.161Z,19.22
2022-07-26T21:08:58.001Z,19.21
2022-07-26T21:11:26.244Z,19.20
2022-07-26T21:13:54.614Z,19.19
2022-07-26T21:16:22.636Z,19.16
2022-07-26T21:18:52.639Z,19.10
2022-07-26T21:21:21.881Z,19.11
2022-07-26T21:23:50.026Z,19.07
2022-07-26T21:26:17.895Z,19.07
2022-07-26T21:28:45.898Z,19.01
2022-07-26T21:31:13.730Z,18.97
2022-07-26T21:33:41.638Z,18.97
2022-07-26T21:36:09.347Z,18.94
2022-07-26T21:38:37.015Z,18.91
2022-07-26T21:41:04.782Z,18.85
2022-07-26T21:43:32.867Z,18.82
2022-07-26T21:46:00.943Z,18.77
2022-07-26T21:48:30.104Z,18.73
2022-07-26T21:50:57.850Z,18.77
2022-07-26T21:53:25.481Z,18.77
2022-07-26T21:55:53.241Z,18.74
2022-07-26T21:58:21.092Z,18.70
2022-07-26T22:00:48.792Z,18.68
2022-07-26T22:03:16.740Z,18.66
2022-07-26T22:05:45.374Z,18.63
2022-07-26T22:08:15.461Z,18.60
2022-07-26T22:15:21.196Z,18.57
2022-07-26T22:17:49.269Z,18.51
2022-07-26T22:20:17.107Z,18.47
2022-07-26T22:22:44.872Z,18.48
2022-07-26T22:25:12.807Z,18.48
2022-07-26T22:27:40.704Z,18.48
2022-07-26T22:30:08.967Z,18.50
2022-07-26T22:32:36.801Z,18.49
2022-07-26T22:35:05.108Z,18.52
2022-07-26T22:37:32.854Z,18.52
2022-07-26T22:40:00.732Z,18.49
2022-07-26T22:42:28.482Z,18.43
2022-07-26T22:44:56.249Z,18.40
2022-07-26T22:47:24.225Z,18.36
2022-07-26T22:52:38.107Z,18.28
2022-07-26T22:55:06.607Z,18.22
2022-07-26T22:57:34.332Z,18.20
2022-07-26T23:00:02.344Z,18.23
2022-07-26T23:02:30.256Z,18.23
2022-07-26T23:04:57.991Z,18.24
2022-07-26T23:07:25.774Z,18.23
2022-07-26T23:09:53.536Z,18.21
2022-07-26T23:12:21.713Z,18.22
2022-07-26T23:14:49.786Z,18.24
2022-07-26T23:17:17.654Z,18.21
2022-07-26T23:19:45.892Z,18.20
2022-07-26T23:22:13.739Z,18.19
2022-07-26T23:24:43.562Z,18.14
2022-07-26T23:27:14.257Z,18.08
2022-07-26T23:29:44.583Z,18.05
2022-07-26T23:32:13.963Z,18.03
2022-07-26T23:34:41.775Z,18.04
2022-07-26T23:37:09.805Z,18.02
2022-07-26T23:39:37.613Z,18.00
2022-07-26T23:42:07.335Z,17.97
2022-07-26T23:44:35.040Z,17.92
2022-07-26T23:47:02.882Z,17.90
2022-07-26T23:49:30.966Z,17.89
2022-07-26T23:51:58.875Z,17.90
2022-07-26T23:54:26.584Z,17.88
2022-07-26T23:56:54.286Z,17.88
2022-07-26T23:59:22.096Z,17.85
